Time;durP1;ratioP1;P1;durP2;ratioP2;P2;SDS_P1;SDS_P2;PMS_P1;PMS_P2;Temp;Humidity;BMP_temperature;BMP_pressure;BME280_temperature;BME280_humidity;BME280_pressure;Samples;Min_cycle;Max_cycle;Signal;HPM_P1;HPM_P2
2023/09/07 00:02:24;;;;;;;4.97;3.17;;;;;;;-145.69;54.94;51822.59;5134137;27;20684;-83
2023/09/07 00:04:50;;;;;;;5.22;3.00;;;;;;;-145.69;54.63;51818.63;5134762;27;20197;-82
2023/09/07 00:07:18;;;;;;;7.32;3.72;;;;;;;-145.69;54.28;51784.97;5134372;27;20201;-83
2023/09/07 00:09:46;;;;;;;5.95;2.97;;;;;;;-145.69;54.35;51828.53;5133843;27;20227;-82
2023/09/07 00:12:13;;;;;;;5.25;3.58;;;;;;;-145.69;54.66;51802.78;5133951;27;20220;-82
2023/09/07 00:14:41;;;;;;;4.30;3.08;;;;;;;-145.69;54.57;51830.50;5134403;27;20192;-82
2023/09/07 00:17:09;;;;;;;6.40;3.67;;;;;;;-145.69;54.43;51810.72;5134113;27;20197;-81
2023/09/07 00:19:37;;;;;;;5.90;3.17;;;;;;;-145.69;54.95;51848.34;5134320;27;20201;-82
2023/09/07 00:22:04;;;;;;;5.05;3.45;;;;;;;-145.69;55.21;51826.56;5133937;27;20185;-81
2023/09/07 00:24:34;;;;;;;3.92;3.20;;;;;;;-145.69;55.41;51836.44;5133693;27;20192;-81
2023/09/07 00:27:00;;;;;;;7.45;3.53;;;;;;;-145.69;55.97;51830.50;5134142;27;20224;-82
2023/09/07 00:29:27;;;;;;;4.73;3.00;;;;;;;-145.69;55.65;51814.66;5133855;27;20233;-82
2023/09/07 00:31:53;;;;;;;4.25;2.83;;;;;;;-145.69;55.99;51830.50;5134126;27;20197;-81
2023/09/07 00:34:20;;;;;;;5.55;4.22;;;;;;;-145.69;56.20;51842.38;5134013;27;20199;-81
2023/09/07 00:36:48;;;;;;;5.37;3.33;;;;;;;-145.69;56.07;51818.63;5133643;27;20647;-82
2023/09/07 00:39:15;;;;;;;6.43;3.20;;;;;;;-145.69;55.87;51818.63;5133655;27;20251;-82
2023/09/07 00:41:43;;;;;;;7.85;3.72;;;;;;;-145.69;55.59;51872.09;5133706;27;20304;-81
2023/09/07 00:44:09;;;;;;;4.85;3.22;;;;;;;-145.69;55.59;51794.88;5132651;27;20234;-82
2023/09/07 00:46:36;;;;;;;4.30;3.10;;;;;;;-145.69;55.42;51824.56;5115498;28;20204;-82
2023/09/07 00:49:04;;;;;;;4.72;3.20;;;;;;;-145.69;55.88;51834.47;5133492;28;20254;-81
2023/09/07 00:51:31;;;;;;;4.93;3.87;;;;;;;-145.69;56.05;51846.34;5133421;28;20201;-81
2023/09/07 00:54:01;;;;;;;5.88;3.17;;;;;;;-145.69;56.14;51828.53;5132264;27;20294;-82
2023/09/07 00:56:27;;;;;;;5.17;3.27;;;;;;;-145.69;56.25;51806.75;5133830;27;20291;-82
2023/09/07 00:58:58;;;;;;;7.03;3.37;;;;;;;-145.69;56.58;51830.50;5133906;27;20199;-82
2023/09/07 01:01:27;;;;;;;5.57;3.63;;;;;;;-145.69;55.95;51820.59;5113420;28;20201;-81
2023/09/07 01:03:54;;;;;;;4.78;3.70;;;;;;;-145.69;56.63;51810.72;5113146;28;20197;-82
2023/09/07 01:06:26;;;;;;;5.22;3.55;;;;;;;-145.69;56.12;51806.75;5121620;28;20192;-81
2023/09/07 01:08:56;;;;;;;7.33;3.73;;;;;;;-145.69;56.29;51826.56;5133698;28;20193;-81
2023/09/07 01:11:23;;;;;;;5.43;3.03;;;;;;;-145.69;56.48;51838.44;5133165;27;20227;-82
2023/09/07 01:13:50;;;;;;;6.20;4.00;;;;;;;-145.69;57.17;51790.91;5133764;27;20216;-82
2023/09/07 01:16:18;;;;;;;5.28;3.92;;;;;;;-145.69;56.35;51792.88;5133567;27;20200;-81
2023/09/07 01:18:45;;;;;;;5.47;3.90;;;;;;;-145.69;56.57;51820.59;5133295;27;20207;-81
2023/09/07 01:21:13;;;;;;;5.00;3.80;;;;;;;-145.69;56.82;51824.56;5133224;27;20197;-81
2023/09/07 01:23:42;;;;;;;6.87;4.00;;;;;;;-145.69;56.80;51822.59;5132984;27;20618;-82
2023/09/07 01:26:12;;;;;;;7.73;3.83;;;;;;;-145.69;56.20;51800.81;5133487;28;20193;-82
2023/09/07 01:28:39;;;;;;;8.10;3.97;;;;;;;-145.69;56.25;51818.63;5133726;27;20197;-82
2023/09/07 01:31:06;;;;;;;5.40;3.97;;;;;;;-145.69;56.65;51838.44;5133250;27;20232;-81
2023/09/07 01:33:33;;;;;;;6.37;3.60;;;;;;;-145.69;55.96;51830.50;5133005;27;20199;-82
2023/09/07 01:35:59;;;;;;;7.37;3.90;;;;;;;-145.69;55.93;51842.38;5133087;27;20196;-82
2023/09/07 01:38:26;;;;;;;5.20;3.33;;;;;;;-145.69;56.34;51848.34;5133274;28;20654;-82
2023/09/07 01:40:57;;;;;;;4.47;3.43;;;;;;;-145.69;56.51;51838.44;5133258;28;20192;-82
2023/09/07 01:43:25;;;;;;;7.57;3.63;;;;;;;-145.69;56.67;51828.53;5133229;28;20240;-82
2023/09/07 01:45:52;;;;;;;6.63;3.30;;;;;;;-145.69;56.72;51840.41;5132991;27;20723;-81
2023/09/07 01:48:18;;;;;;;8.67;3.43;;;;;;;-145.69;56.88;51840.41;5133063;27;20197;-82
2023/09/07 01:50:45;;;;;;;6.57;4.07;;;;;;;-145.69;57.00;51858.22;5133258;27;20567;-82
2023/09/07 01:53:12;;;;;;;8.40;3.87;;;;;;;-145.69;57.30;51820.59;5134052;27;20875;-83
2023/09/07 01:55:38;;;;;;;6.47;3.97;;;;;;;-145.69;57.08;51820.59;5136922;27;20287;-83
2023/09/07 01:58:06;;;;;;;6.10;4.07;;;;;;;-145.69;57.06;51814.66;5136773;27;20557;-83
2023/09/07 02:00:38;;;;;;;8.33;4.13;;;;;;;-145.69;57.67;51826.56;5136820;27;20292;-82
2023/09/07 02:03:06;;;;;;;5.83;4.27;;;;;;;-145.69;58.00;51818.63;5136540;27;20193;-81
2023/09/07 02:05:33;;;;;;;5.87;4.00;;;;;;;-145.69;57.63;51846.34;5136759;27;20647;-82
2023/09/07 02:08:01;;;;;;;6.07;3.87;;;;;;;-145.69;58.16;51838.44;5136886;27;20201;-82
2023/09/07 02:10:28;;;;;;;5.97;4.17;;;;;;;-145.69;58.48;51848.34;5136476;27;20228;-82
2023/09/07 02:12:56;;;;;;;7.55;4.45;;;;;;;-145.69;58.50;51856.25;5135292;27;20232;-83
2023/09/07 02:15:24;;;;;;;7.17;4.40;;;;;;;-145.69;58.98;51826.56;5136420;27;20215;-81
2023/09/07 02:17:52;;;;;;;10.60;4.63;;;;;;;-145.69;58.40;51830.50;5136581;27;20197;-82
2023/09/07 02:20:20;;;;;;;5.15;3.97;;;;;;;-145.69;58.21;51846.34;5136583;27;20232;-82
2023/09/07 02:22:47;;;;;;;9.03;4.27;;;;;;;-145.69;57.47;51838.44;5135753;27;20204;-82
2023/09/07 02:25:14;;;;;;;7.10;3.87;;;;;;;-145.69;57.40;51814.66;5136490;27;20197;-83
2023/09/07 02:27:41;;;;;;;5.27;3.80;;;;;;;-145.69;57.40;51844.38;5136133;27;20292;-83
2023/09/07 02:30:08;;;;;;;5.85;3.70;;;;;;;-145.69;57.68;51830.50;5136390;27;20212;-83
2023/09/07 02:32:36;;;;;;;8.45;4.40;;;;;;;-145.69;57.69;51842.38;5136335;27;20197;-82
2023/09/07 02:35:04;;;;;;;7.70;4.40;;;;;;;-145.69;57.86;51814.66;5136010;27;20639;-82
2023/09/07 02:37:30;;;;;;;7.63;4.67;;;;;;;-145.69;58.68;51842.38;5136091;27;20205;-82
2023/09/07 02:39:57;;;;;;;6.40;4.83;;;;;;;-145.69;58.36;51856.25;5135940;27;20189;-82
2023/09/07 02:42:24;;;;;;;9.93;5.07;;;;;;;-145.69;58.78;51838.44;5135719;27;20235;-82
2023/09/07 02:44:52;;;;;;;8.55;4.55;;;;;;;-145.69;58.34;51814.66;5135313;27;20197;-82
2023/09/07 02:47:18;;;;;;;8.00;4.80;;;;;;;-145.69;58.68;51858.22;5121989;27;20200;-82
2023/09/07 02:49:46;;;;;;;7.53;4.55;;;;;;;-145.69;58.28;51850.31;5135868;27;20648;-83
2023/09/07 02:52:13;;;;;;;6.28;4.30;;;;;;;-145.69;58.30;51870.13;5135448;27;20214;-82
2023/09/07 02:54:42;;;;;;;8.25;4.70;;;;;;;-145.69;58.23;51846.34;5135554;27;20199;-82
2023/09/07 02:57:09;;;;;;;7.32;4.70;;;;;;;-145.69;58.00;51846.34;5135826;27;20205;-82
2023/09/07 02:59:35;;;;;;;9.45;4.60;;;;;;;-145.69;57.94;51806.75;5135726;27;20284;-82
2023/09/07 03:02:02;;;;;;;7.38;4.43;;;;;;;-145.69;57.46;51844.38;5135689;27;20197;-84
2023/09/07 03:04:29;;;;;;;6.78;4.85;;;;;;;-145.69;57.34;51820.59;5135821;27;20205;-82
2023/09/07 03:06:57;;;;;;;6.47;3.58;;;;;;;-145.69;57.04;51850.31;5135450;27;20639;-82
2023/09/07 03:09:23;;;;;;;6.20;4.22;;;;;;;-145.69;56.74;51832.50;5134510;27;20287;-82
2023/09/07 03:11:50;;;;;;;4.65;3.85;;;;;;;-145.69;57.28;51878.03;5133798;27;20224;-81
2023/09/07 03:14:16;;;;;;;6.38;4.40;;;;;;;-145.69;57.38;51854.28;5133623;27;20204;-82
2023/09/07 03:16:44;;;;;;;9.63;4.82;;;;;;;-145.69;57.85;51856.25;5135015;27;20215;-81
2023/09/07 03:19:11;;;;;;;7.43;5.22;;;;;;;-145.69;58.80;51850.31;5135363;27;20196;-81
2023/09/07 03:21:38;;;;;;;8.00;4.10;;;;;;;-145.69;57.93;51822.59;5133619;27;20243;-82
2023/09/07 03:24:06;;;;;;;7.43;4.40;;;;;;;-145.69;57.45;51858.22;5135189;27;20204;-82
2023/09/07 03:26:33;;;;;;;5.77;4.23;;;;;;;-145.69;57.65;51844.38;5134896;27;20193;-81
2023/09/07 03:28:59;;;;;;;6.45;3.97;;;;;;;-145.69;57.43;51840.41;5135100;27;20200;-82
2023/09/07 03:31:26;;;;;;;8.30;4.90;;;;;;;-145.69;58.31;51866.16;5134740;27;20233;-82
2023/09/07 03:33:52;;;;;;;5.70;4.40;;;;;;;-145.69;58.42;51868.13;5135025;27;20193;-82
2023/09/07 03:36:19;;;;;;;6.72;4.68;;;;;;;-145.69;58.52;51842.38;5134983;27;20240;-83
2023/09/07 03:38:45;;;;;;;9.30;5.27;;;;;;;-145.69;58.33;51854.28;5134736;27;20203;-82
2023/09/07 03:41:13;;;;;;;6.57;4.57;;;;;;;-145.69;58.46;51872.09;5134949;27;20296;-83
2023/09/07 03:43:40;;;;;;;9.77;4.70;;;;;;;-145.69;58.09;51840.41;5134740;27;20243;-83
2023/09/07 03:46:07;;;;;;;6.97;4.55;;;;;;;-145.69;58.04;51864.16;5134972;27;20598;-84
2023/09/07 03:48:33;;;;;;;7.40;4.77;;;;;;;-145.69;58.22;51836.44;5135080;27;20193;-83
2023/09/07 03:51:01;;;;;;;7.53;4.88;;;;;;;-145.69;58.53;51848.34;5134413;27;20685;-84
2023/09/07 03:53:27;;;;;;;7.33;5.40;;;;;;;-145.69;58.11;51834.47;5133892;27;20219;-83
2023/09/07 03:55:54;;;;;;;7.68;4.70;;;;;;;-145.69;58.18;51844.38;5134204;27;20204;-83
2023/09/07 03:58:22;;;;;;;7.20;5.32;;;;;;;-145.69;57.88;51842.38;5134764;27;20201;-82
2023/09/07 04:00:48;;;;;;;7.07;4.97;;;;;;;-145.69;57.93;51856.25;5134494;27;20253;-83
2023/09/07 04:03:15;;;;;;;8.00;5.20;;;;;;;-145.69;58.08;51868.13;5134003;27;20232;-82
2023/09/07 04:05:43;;;;;;;7.33;5.17;;;;;;;-145.69;58.11;51889.91;5134393;27;20205;-83
2023/09/07 04:08:11;;;;;;;9.87;5.07;;;;;;;-145.69;58.42;51878.03;5134673;27;20192;-84
2023/09/07 04:10:38;;;;;;;9.27;4.80;;;;;;;-145.69;58.46;51874.06;5134803;27;20225;-83
2023/09/07 04:13:05;;;;;;;8.90;4.97;;;;;;;-145.69;58.26;51834.47;5134407;27;20277;-83
2023/09/07 04:15:33;;;;;;;8.77;5.20;;;;;;;-145.69;58.31;51874.06;5112103;28;20534;-83
2023/09/07 04:18:01;;;;;;;9.13;5.77;;;;;;;-145.69;58.95;51836.44;5113726;28;20232;-83
2023/09/07 04:20:29;;;;;;;6.47;4.80;;;;;;;-145.69;58.33;51834.47;5113579;28;20197;-83
2023/09/07 04:22:55;;;;;;;7.40;5.30;;;;;;;-145.69;58.03;51899.81;5123947;27;20265;-81
2023/09/07 04:25:22;;;;;;;8.60;4.73;;;;;;;-145.69;58.34;51878.03;5134192;27;20200;-82
2023/09/07 04:27:53;;;;;;;7.13;5.07;;;;;;;-145.69;58.08;51862.19;5133757;27;20203;-84
2023/09/07 04:30:20;;;;;;;7.23;5.00;;;;;;;-145.69;58.18;51854.28;5132865;27;20199;-84
2023/09/07 04:32:53;;;;;;;7.38;5.30;;;;;;;-145.69;58.06;51862.19;5133868;27;21264;-83
2023/09/07 04:35:21;;;;;;;7.00;5.37;;;;;;;-145.69;58.38;51840.41;5134338;27;20238;-82
2023/09/07 04:37:47;;;;;;;7.07;5.23;;;;;;;-145.69;58.52;51870.13;5133938;27;20662;-83
2023/09/07 04:40:15;;;;;;;7.83;5.30;;;;;;;-145.69;58.39;51844.38;5133583;27;20201;-83
2023/09/07 04:42:41;;;;;;;11.15;5.95;;;;;;;-145.69;59.03;51854.28;5130900;27;20236;-83
2023/09/07 04:45:09;;;;;;;9.23;6.33;;;;;;;-145.69;58.70;51866.16;5118370;27;20555;-83
2023/09/07 04:47:36;;;;;;;6.97;4.65;;;;;;;-145.69;58.31;51860.22;5134142;27;20232;-83
2023/09/07 04:50:06;;;;;;;10.35;5.50;;;;;;;-145.69;58.74;51856.25;5133694;28;20200;-82
2023/09/07 04:52:34;;;;;;;9.17;5.70;;;;;;;-145.69;58.73;51850.31;5133440;27;20236;-81
2023/09/07 04:55:01;;;;;;;7.43;5.13;;;;;;;-145.69;58.75;51864.16;5133375;27;20197;-82
2023/09/07 04:57:27;;;;;;;8.10;5.57;;;;;;;-145.69;58.83;51866.16;5133206;28;20677;-81
2023/09/07 04:59:54;;;;;;;9.05;5.95;;;;;;;-145.69;59.61;51876.06;5133151;27;20779;-82
2023/09/07 05:02:20;;;;;;;8.10;5.70;;;;;;;-145.69;58.97;51876.06;5132620;28;20205;-81
2023/09/07 05:04:47;;;;;;;8.20;5.72;;;;;;;-145.69;58.91;51854.28;5113374;28;20197;-80
2023/09/07 05:07:15;;;;;;;7.00;5.40;;;;;;;-145.69;59.04;51885.94;5117291;28;20181;-82
2023/09/07 05:09:41;;;;;;;9.73;6.20;;;;;;;-145.69;59.11;51838.44;5133696;28;20288;-82
2023/09/07 05:12:08;;;;;;;9.90;6.10;;;;;;;-145.69;59.01;51856.25;5133269;27;20228;-82
2023/09/07 05:14:34;;;;;;;10.20;6.03;;;;;;;-145.69;58.78;51848.34;5133308;28;20686;-82
2023/09/07 05:17:01;;;;;;;8.20;5.57;;;;;;;-145.69;58.72;51866.16;5133427;28;20200;-81
2023/09/07 05:19:28;;;;;;;7.53;5.65;;;;;;;-145.69;58.68;51852.28;5133390;27;20276;-81
2023/09/07 05:21:57;;;;;;;10.23;5.90;;;;;;;-145.69;58.42;51850.31;5133386;27;20556;-81
2023/09/07 05:24:27;;;;;;;8.57;5.45;;;;;;;-145.69;58.71;51882.00;5133626;27;20547;-82
2023/09/07 05:26:57;;;;;;;11.13;6.60;;;;;;;-145.69;58.80;51836.44;5133181;27;20284;-83
2023/09/07 05:29:24;;;;;;;9.43;6.15;;;;;;;-145.69;58.76;51856.25;5135391;27;20536;-82
2023/09/07 05:31:50;;;;;;;9.23;6.10;;;;;;;-145.69;58.82;51858.22;5135295;27;20629;-82
2023/09/07 05:34:20;;;;;;;7.80;5.57;;;;;;;-145.69;58.54;51846.34;5135580;27;20770;-81
2023/09/07 05:36:48;;;;;;;10.13;6.43;;;;;;;-145.69;58.79;51838.44;5135236;27;20203;-81
2023/09/07 05:39:15;;;;;;;8.75;6.40;;;;;;;-145.69;59.04;51885.94;5135237;27;20273;-82
2023/09/07 05:41:42;;;;;;;9.07;6.57;;;;;;;-145.69;59.11;51846.34;5135637;27;20197;-82
2023/09/07 05:44:11;;;;;;;9.93;7.40;;;;;;;-145.69;60.07;51864.16;5135407;27;20440;-82
2023/09/07 05:46:37;;;;;;;9.68;6.57;;;;;;;-145.69;59.43;51842.38;5136579;27;20224;-82
2023/09/07 05:49:08;;;;;;;12.52;5.88;;;;;;;-145.69;58.79;51830.50;5136971;27;20200;-82
2023/09/07 05:51:36;;;;;;;10.35;6.18;;;;;;;-145.69;58.88;51828.53;5136792;27;20216;-82
2023/09/07 05:54:03;;;;;;;14.43;7.20;;;;;;;-145.69;59.25;51824.56;5136708;27;20565;-81
2023/09/07 05:56:33;;;;;;;8.98;6.10;;;;;;;-145.69;58.97;51848.34;5137064;27;20556;-82
2023/09/07 05:59:01;;;;;;;9.10;6.30;;;;;;;-145.69;58.41;51846.34;5136617;27;20197;-83
2023/09/07 06:01:27;;;;;;;8.68;6.28;;;;;;;-145.69;58.53;51848.34;5136908;27;20193;-82
2023/09/07 06:03:54;;;;;;;9.20;6.20;;;;;;;-145.69;58.66;51880.00;5136473;27;20205;-82
2023/09/07 06:06:21;;;;;;;8.95;5.70;;;;;;;-145.69;58.73;51838.44;5136754;27;20593;-81
2023/09/07 06:08:49;;;;;;;10.35;6.80;;;;;;;-145.69;59.28;51862.19;5136783;27;20208;-82
2023/09/07 06:11:15;;;;;;;13.60;7.05;;;;;;;-145.69;59.19;51854.28;5136720;27;20216;-82
2023/09/07 06:13:42;;;;;;;9.38;7.00;;;;;;;-145.69;58.87;51862.19;5136370;27;20193;-81
2023/09/07 06:16:10;;;;;;;9.98;6.85;;;;;;;-145.69;59.46;51858.22;5136163;27;20276;-82
2023/09/07 06:18:36;;;;;;;9.45;6.93;;;;;;;-145.69;59.46;51848.34;5136694;27;20236;-81
2023/09/07 06:21:12;;;;;;;13.45;7.32;;;;;;;-145.69;59.38;51858.22;5136603;27;20196;-81
2023/09/07 06:23:41;;;;;;;9.50;7.28;;;;;;;-145.69;59.17;51832.50;5136284;27;20204;-82
2023/09/07 06:26:08;;;;;;;11.25;7.30;;;;;;;-145.69;59.07;51842.38;5136253;27;20277;-82
2023/09/07 06:28:34;;;;;;;9.75;6.57;;;;;;;-145.69;59.27;51850.31;5136064;27;20279;-82
2023/09/07 06:31:01;;;;;;;10.23;6.60;;;;;;;-145.69;59.21;51868.13;5136132;27;20651;-81
2023/09/07 06:33:31;;;;;;;9.63;6.47;;;;;;;-145.69;59.41;51834.47;5136138;27;20291;-82
2023/09/07 06:36:01;;;;;;;10.23;7.40;;;;;;;-145.69;59.67;51842.38;5136348;27;20197;-82
2023/09/07 06:38:27;;;;;;;13.07;7.18;;;;;;;-145.69;59.74;51822.59;5132535;27;20204;-82
2023/09/07 06:40:56;;;;;;;8.55;6.47;;;;;;;-145.69;59.50;51842.38;5136133;27;20292;-82
2023/09/07 06:43:22;;;;;;;12.18;7.43;;;;;;;-145.69;59.69;51834.47;5135426;27;20224;-81
2023/09/07 06:45:49;;;;;;;10.88;7.50;;;;;;;-145.69;59.57;51860.22;5135545;27;20200;-82
2023/09/07 06:48:15;;;;;;;10.23;6.75;;;;;;;-145.69;59.56;51834.47;5135312;27;20189;-82
2023/09/07 06:50:43;;;;;;;14.85;7.03;;;;;;;-145.69;59.68;51818.63;5135970;27;20212;-82
2023/09/07 06:53:10;;;;;;;11.68;7.43;;;;;;;-145.69;59.52;51816.66;5136022;27;20225;-83
2023/09/07 06:55:36;;;;;;;11.13;7.28;;;;;;;-145.69;59.58;51814.66;5136006;27;20211;-83
2023/09/07 06:58:03;;;;;;;11.70;7.22;;;;;;;-145.69;59.91;51838.44;5135543;27;20566;-82
2023/09/07 07:00:30;;;;;;;11.50;7.50;;;;;;;-145.69;59.67;51810.72;5135333;27;20555;-83
2023/09/07 07:02:58;;;;;;;9.80;7.47;;;;;;;-145.69;59.40;51838.44;5135062;27;20546;-82
2023/09/07 07:05:28;;;;;;;16.33;6.78;;;;;;;-145.69;59.58;51838.44;5134413;27;20204;-82
2023/09/07 07:07:56;;;;;;;13.52;7.30;;;;;;;-145.69;59.26;51814.66;5135644;27;20205;-82
2023/09/07 07:10:22;;;;;;;15.18;7.53;;;;;;;-145.69;59.66;51792.88;5135338;27;20204;-82
2023/09/07 07:12:49;;;;;;;11.50;7.75;;;;;;;-145.69;59.56;51826.56;5135386;27;20224;-83
2023/09/07 07:15:16;;;;;;;10.80;7.25;;;;;;;-145.69;58.99;51818.63;5135455;27;20239;-83
2023/09/07 07:17:42;;;;;;;12.25;7.60;;;;;;;-145.69;59.45;51816.66;5135663;27;20299;-82
2023/09/07 07:20:12;;;;;;;12.10;7.53;;;;;;;-145.69;58.96;51794.88;5135629;27;20197;-81
2023/09/07 07:22:43;;;;;;;10.75;6.70;;;;;;;-145.69;59.20;51775.06;5134596;27;20197;-82
2023/09/07 07:25:14;;;;;;;9.90;6.00;;;;;;;-145.69;58.17;51830.50;5135207;27;20687;-81
2023/09/07 07:27:40;;;;;;;8.77;6.25;;;;;;;-145.69;57.45;51790.91;5134895;27;20201;-81
2023/09/07 07:30:08;;;;;;;10.88;6.45;;;;;;;-145.69;58.02;51794.88;5134949;27;20196;-81
2023/09/07 07:32:34;;;;;;;8.88;6.20;;;;;;;-145.69;57.96;51820.59;5134980;27;20250;-82
2023/09/07 07:35:01;;;;;;;11.20;6.47;;;;;;;-145.69;57.47;51779.03;5134615;27;20196;-81
2023/09/07 07:37:27;;;;;;;7.63;6.10;;;;;;;-145.69;56.86;51755.25;5135072;27;20239;-82
2023/09/07 07:39:54;;;;;;;8.63;5.75;;;;;;;-145.69;57.05;51806.75;5134640;27;20554;-82
2023/09/07 07:42:24;;;;;;;7.18;5.45;;;;;;;-145.69;57.10;51777.03;5135730;27;20335;-81
2023/09/07 07:44:50;;;;;;;8.55;5.53;;;;;;;-145.69;56.08;51808.72;5134509;27;20651;-81
2023/09/07 07:47:17;;;;;;;7.38;4.90;;;;;;;-145.69;55.39;51820.59;5134819;27;20196;-81
2023/09/07 07:49:44;;;;;;;7.97;5.15;;;;;;;-145.69;54.88;51773.09;5134621;27;20197;-81
2023/09/07 07:52:17;;;;;;;9.50;5.45;;;;;;;-145.69;54.38;51777.03;5133756;27;20235;-82
2023/09/07 07:54:44;;;;;;;6.90;4.80;;;;;;;-145.69;54.82;51773.09;5133437;27;20426;-81
2023/09/07 07:57:13;;;;;;;12.88;5.43;;;;;;;-145.69;53.74;51771.09;5134580;27;20261;-81
2023/09/07 07:59:41;;;;;;;8.35;4.70;;;;;;;-145.69;52.71;51779.03;5134712;27;20211;-81
2023/09/07 08:02:10;;;;;;;5.95;4.35;;;;;;;-145.69;52.30;51743.38;5133741;27;20184;-81
2023/09/07 08:04:37;;;;;;;8.70;4.50;;;;;;;-145.69;51.33;51755.25;5134181;27;20572;-82
2023/09/07 08:07:04;;;;;;;12.25;4.97;;;;;;;-145.69;50.24;51775.06;5134337;27;20284;-81
2023/09/07 08:09:31;;;;;;;6.90;4.38;;;;;;;-145.69;50.15;51743.38;5134542;27;20658;-81
2023/09/07 08:11:58;;;;;;;8.00;4.10;;;;;;;-145.69;49.73;51751.31;5134347;27;20224;-82
2023/09/07 08:14:25;;;;;;;8.18;4.60;;;;;;;-145.69;49.84;51759.22;5133746;27;20192;-82
2023/09/07 08:16:54;;;;;;;6.60;4.55;;;;;;;-145.69;48.52;51719.63;5134242;27;20562;-81
2023/09/07 08:19:20;;;;;;;5.22;4.18;;;;;;;-145.69;48.26;51733.50;5134129;27;20205;-81
2023/09/07 08:21:47;;;;;;;7.63;4.22;;;;;;;-145.69;48.30;51735.47;5134081;27;20563;-82
2023/09/07 08:24:13;;;;;;;9.25;4.57;;;;;;;-145.69;48.11;51739.44;5133842;27;20682;-82
2023/09/07 08:26:42;;;;;;;6.32;4.18;;;;;;;-145.69;48.39;51753.28;5132751;27;20192;-82
2023/09/07 08:29:10;;;;;;;6.57;4.63;;;;;;;-145.69;50.17;51739.44;5134121;27;20243;-82
2023/09/07 08:31:38;;;;;;;9.52;4.72;;;;;;;-145.69;49.78;51755.25;5133981;27;20212;-82
2023/09/07 08:34:09;;;;;;;7.32;3.88;;;;;;;-145.69;49.49;51719.63;5133882;27;20193;-82
2023/09/07 08:36:37;;;;;;;8.82;4.50;;;;;;;-145.69;49.26;51763.19;5122903;27;20193;-82
2023/09/07 08:39:07;;;;;;;9.68;4.40;;;;;;;-145.69;49.35;51727.53;5133028;27;20199;-82
2023/09/07 08:41:41;;;;;;;6.70;4.25;;;;;;;-145.69;49.09;51741.41;5133760;27;20197;-82
2023/09/07 08:44:09;;;;;;;7.65;4.90;;;;;;;-145.69;48.72;51725.56;5133483;27;20228;-82
2023/09/07 08:46:36;;;;;;;6.57;4.82;;;;;;;-145.69;49.81;51733.50;5133396;27;20242;-82
2023/09/07 08:49:04;;;;;;;6.30;4.57;;;;;;;-145.69;48.63;51719.63;5133849;27;20193;-82
2023/09/07 08:51:32;;;;;;;5.63;3.88;;;;;;;-145.69;48.85;51755.25;5133879;27;20201;-82
2023/09/07 08:53:59;;;;;;;5.55;4.28;;;;;;;-145.69;48.93;51731.50;5133844;27;20293;-82
2023/09/07 08:56:26;;;;;;;10.20;4.82;;;;;;;-145.69;48.61;51743.38;5133961;27;20208;-82
2023/09/07 08:58:52;;;;;;;5.53;4.05;;;;;;;-145.69;49.16;51727.53;5133851;28;20219;-81
2023/09/07 09:01:21;;;;;;;6.65;4.22;;;;;;;-145.69;48.58;51727.53;5133560;27;20651;-82
2023/09/07 09:03:50;;;;;;;6.70;4.20;;;;;;;-145.69;48.34;51739.44;5137855;27;20197;-82
2023/09/07 09:06:19;;;;;;;6.90;4.47;;;;;;;-145.69;48.01;51737.44;5118744;27;20201;-81
2023/09/07 09:08:48;;;;;;;7.72;4.57;;;;;;;-145.69;47.94;51735.47;5137444;27;20490;-82
2023/09/07 09:11:16;;;;;;;8.25;4.88;;;;;;;-145.69;47.47;51735.47;5137774;27;20238;-82
2023/09/07 09:13:43;;;;;;;7.25;4.30;;;;;;;-145.69;47.65;51743.38;5137213;27;20220;-82
2023/09/07 09:16:10;;;;;;;7.22;4.38;;;;;;;-145.69;47.40;51719.63;5137895;27;20200;-82
2023/09/07 09:18:37;;;;;;;10.82;5.03;;;;;;;-145.69;47.36;51707.75;5137993;27;20253;-82
2023/09/07 09:21:05;;;;;;;8.18;4.82;;;;;;;-145.69;47.83;51743.38;5137012;27;20773;-82
2023/09/07 09:23:33;;;;;;;7.78;4.25;;;;;;;-145.69;47.16;51751.31;5137984;27;20216;-82
2023/09/07 09:26:05;;;;;;;6.03;4.28;;;;;;;-145.69;46.82;51725.56;5137243;27;20524;-82
2023/09/07 09:28:32;;;;;;;6.47;4.03;;;;;;;-145.69;46.77;51727.53;5137549;27;20193;-82
2023/09/07 09:30:59;;;;;;;6.93;4.72;;;;;;;-145.69;47.28;51719.63;5137552;27;20624;-82
2023/09/07 09:33:27;;;;;;;6.72;4.40;;;;;;;-145.69;46.83;51703.78;5137363;27;20331;-83
2023/09/07 09:35:55;;;;;;;7.10;4.68;;;;;;;-145.69;47.09;51735.47;5138166;27;20199;-81
2023/09/07 09:38:21;;;;;;;6.40;4.32;;;;;;;-145.69;46.59;51733.50;5137487;27;20222;-82
2023/09/07 09:40:51;;;;;;;6.70;4.10;;;;;;;-145.69;46.61;51747.34;5137706;27;20202;-82
2023/09/07 09:43:20;;;;;;;9.30;4.55;;;;;;;-145.69;47.24;51699.81;5137170;27;20308;-83
2023/09/07 09:45:49;;;;;;;9.02;5.32;;;;;;;-145.69;47.19;51737.44;5137420;27;20204;-83
2023/09/07 09:48:17;;;;;;;9.30;4.63;;;;;;;-145.69;46.82;51685.97;5136841;27;20806;-82
2023/09/07 09:50:48;;;;;;;6.78;4.63;;;;;;;-145.69;45.85;51707.75;5133059;27;20193;-82
2023/09/07 09:53:18;;;;;;;6.75;4.50;;;;;;;-145.69;46.22;51731.50;5136864;27;20578;-83
2023/09/07 09:55:46;;;;;;;8.73;5.20;;;;;;;-145.69;46.59;51737.44;5137781;27;20228;-83
2023/09/07 09:58:13;;;;;;;8.25;4.45;;;;;;;-145.69;46.49;51739.44;5138055;27;20265;-83
2023/09/07 10:00:44;;;;;;;7.85;4.68;;;;;;;-145.69;45.62;51711.72;5136763;27;20795;-82
2023/09/07 10:03:17;;;;;;;7.40;5.00;;;;;;;-145.69;45.83;51683.97;5132074;27;20188;-82
2023/09/07 10:05:45;;;;;;;7.70;4.40;;;;;;;-145.69;45.47;51695.88;5135569;27;20189;-84
2023/09/07 10:08:14;;;;;;;6.53;4.57;;;;;;;-145.69;45.59;51723.59;5137201;27;20207;-83
2023/09/07 10:10:43;;;;;;;10.25;4.40;;;;;;;-145.69;45.52;51683.97;5136926;27;20197;-84
2023/09/07 10:13:10;;;;;;;6.38;4.68;;;;;;;-145.69;45.27;51731.50;5136137;27;20228;-83
2023/09/07 10:15:38;;;;;;;8.80;4.78;;;;;;;-145.69;45.77;51695.88;5136686;27;20405;-83
2023/09/07 10:18:11;;;;;;;5.82;4.32;;;;;;;-145.69;44.50;51729.53;5136646;27;20714;-83
2023/09/07 10:20:50;;;;;;;6.32;3.85;;;;;;;-145.69;44.74;51707.75;5136612;27;20651;-83
2023/09/07 10:23:17;;;;;;;6.57;4.45;;;;;;;-145.69;45.47;51711.72;5136692;27;20211;-84
2023/09/07 10:25:48;;;;;;;6.03;4.10;;;;;;;-145.69;45.14;51715.66;5136560;27;20235;-84
2023/09/07 10:28:23;;;;;;;6.65;4.35;;;;;;;-145.69;44.94;51701.81;5135943;27;20196;-82
2023/09/07 10:31:00;;;;;;;12.48;4.63;;;;;;;-145.69;44.36;51711.72;5133682;27;20239;-82
2023/09/07 10:33:28;;;;;;;7.00;4.32;;;;;;;-145.69;44.96;51680.03;5133692;27;20220;-83
2023/09/07 10:35:55;;;;;;;5.82;4.30;;;;;;;-145.69;45.61;51717.66;5136665;27;20555;-84
2023/09/07 10:38:21;;;;;;;6.68;4.07;;;;;;;-145.69;45.06;51680.03;5136309;27;20239;-83
2023/09/07 10:40:48;;;;;;;5.68;4.43;;;;;;;-145.69;44.91;51709.72;5136232;27;20201;-83
2023/09/07 10:43:15;;;;;;;9.02;4.60;;;;;;;-145.69;44.70;51713.69;5135986;27;20231;-84
2023/09/07 10:45:46;;;;;;;6.65;4.03;;;;;;;-145.69;44.70;51699.81;5136846;27;20239;-83
2023/09/07 10:48:13;;;;;;;6.95;4.68;;;;;;;-145.69;44.06;51691.91;5137160;27;20212;-83
2023/09/07 10:50:47;;;;;;;8.45;4.07;;;;;;;-145.69;43.66;51691.91;5136180;27;20719;-84
2023/09/07 10:53:15;;;;;;;7.93;4.10;;;;;;;-145.69;44.44;51680.03;5136409;27;20220;-84
2023/09/07 10:55:43;;;;;;;7.07;4.28;;;;;;;-145.69;44.13;51683.97;5135942;27;20192;-83
2023/09/07 10:58:10;;;;;;;5.45;3.95;;;;;;;-145.69;43.94;51680.03;5136199;27;20196;-84
2023/09/07 11:00:37;;;;;;;5.22;3.92;;;;;;;-145.69;43.69;51691.91;5137447;27;20617;-83
2023/09/07 11:03:08;;;;;;;6.70;4.28;;;;;;;-145.69;44.10;51683.97;5135898;27;20651;-82
2023/09/07 11:05:36;;;;;;;11.05;4.00;;;;;;;-145.69;42.82;51693.88;5136630;27;20204;-83
2023/09/07 11:08:06;;;;;;;5.55;3.83;;;;;;;-145.69;42.88;51689.94;5136151;27;20211;-81
2023/09/07 11:10:34;;;;;;;6.97;3.83;;;;;;;-145.69;43.07;51683.97;5135906;27;20193;-82
2023/09/07 11:13:02;;;;;;;5.38;3.80;;;;;;;-145.69;42.64;51695.88;5135692;27;20713;-82
2023/09/07 11:15:30;;;;;;;5.93;3.90;;;;;;;-145.69;42.69;51711.72;5136298;27;20196;-82
2023/09/07 11:17:57;;;;;;;7.90;4.50;;;;;;;-145.69;42.83;51668.16;5134837;27;20440;-80
2023/09/07 11:20:24;;;;;;;6.57;4.35;;;;;;;-145.69;42.33;51656.25;5135573;27;20201;-79